Time;durP1;ratioP1;P1;durP2;ratioP2;P2;SDS_P1;SDS_P2;PMS_P1;PMS_P2;Temp;Humidity;BMP_temperature;BMP_pressure;BME280_temperature;BME280_humidity;BME280_pressure;Samples;Min_cycle;Max_cycle;Signal;HPM_P1;HPM_P2
2023/02/06 00:02:10;;;;;;;43.08;34.60;;;24.20;99.90;;;;;;1820177;78;21230;-84
2023/02/06 00:04:41;;;;;;;61.10;50.03;;;24.20;99.90;;;;;;1841313;77;21240;-83
2023/02/06 00:07:11;;;;;;;47.20;39.08;;;24.20;99.90;;;;;;1812180;78;21164;-83
2023/02/06 00:09:42;;;;;;;41.95;34.90;;;24.20;99.90;;;;;;1835242;77;21154;-84
2023/02/06 00:12:13;;;;;;;45.17;35.95;;;24.20;99.90;;;;;;1800983;78;21164;-83
2023/02/06 00:14:44;;;;;;;58.15;45.00;;;24.20;99.90;;;;;;1761574;80;21132;-83
2023/02/06 00:17:14;;;;;;;58.70;43.80;;;24.20;99.90;;;;;;1800217;78;21161;-83
2023/02/06 00:19:45;;;;;;;51.35;41.15;;;24.20;99.90;;;;;;1785592;80;21159;-83
2023/02/06 00:22:16;;;;;;;52.85;41.98;;;24.20;99.90;;;;;;1819867;78;21205;-83
2023/02/06 00:24:46;;;;;;;55.85;44.00;;;24.20;99.90;;;;;;1840990;77;21178;-83
2023/02/06 00:27:17;;;;;;;60.12;44.93;;;24.20;99.90;;;;;;1842977;77;21642;-84
2023/02/06 00:29:48;;;;;;;57.30;49.45;;;24.20;99.90;;;;;;1850131;77;21150;-83
2023/02/06 00:32:19;;;;;;;63.87;55.73;;;24.20;99.90;;;;;;1840725;77;21557;-84
2023/02/06 00:34:49;;;;;;;56.13;50.15;;;24.30;99.90;;;;;;1810040;78;21171;-85
2023/02/06 00:37:20;;;;;;;63.75;49.88;;;24.30;99.90;;;;;;1839695;77;21187;-84
2023/02/06 00:39:51;;;;;;;65.55;53.65;;;24.30;99.90;;;;;;1810474;78;21241;-83
2023/02/06 00:42:22;;;;;;;63.90;48.42;;;24.30;99.90;;;;;;1786867;80;21168;-84
2023/02/06 00:44:52;;;;;;;62.03;50.35;;;24.30;99.90;;;;;;1787112;79;21470;-85
2023/02/06 00:47:23;;;;;;;67.27;53.10;;;24.30;99.90;;;;;;1806481;79;21185;-85
2023/02/06 00:49:54;;;;;;;57.75;49.35;;;24.40;99.90;;;;;;1839201;77;21093;-85
2023/02/06 00:52:25;;;;;;;58.78;47.80;;;24.40;99.90;;;;;;1803969;78;21138;-84
2023/02/06 00:54:55;;;;;;;60.45;48.83;;;24.40;99.90;;;;;;1850199;77;21151;-82
2023/02/06 00:57:26;;;;;;;56.60;48.73;;;24.40;99.90;;;;;;1807009;78;21245;-81
2023/02/06 00:59:57;;;;;;;56.45;48.40;;;24.40;99.90;;;;;;1788264;79;21178;-80
2023/02/06 01:02:27;;;;;;;56.10;48.98;;;24.40;99.90;;;;;;1799171;78;21235;-82
2023/02/06 01:04:58;;;;;;;53.92;47.43;;;24.40;99.90;;;;;;1767717;80;21139;-73
2023/02/06 01:07:30;;;;;;;54.03;47.48;;;24.40;99.90;;;;;;1815247;78;21573;-74
2023/02/06 01:10:00;;;;;;;57.40;48.95;;;24.40;99.90;;;;;;1794952;78;21130;-73
2023/02/06 01:12:36;;;;;;;57.78;50.20;;;24.50;99.90;;;;;;1807589;78;21245;-74
2023/02/06 01:15:05;;;;;;;55.15;49.20;;;24.50;99.90;;;;;;1810397;78;21200;-73
2023/02/06 01:17:38;;;;;;;58.70;50.05;;;24.50;99.90;;;;;;1835542;77;21208;-75
2023/02/06 01:20:12;;;;;;;57.80;50.85;;;24.50;99.90;;;;;;1836365;77;21205;-74
2023/02/06 01:22:43;;;;;;;58.73;50.20;;;24.40;99.90;;;;;;1788628;78;21144;-73
2023/02/06 01:25:13;;;;;;;61.63;52.27;;;24.50;99.90;;;;;;1790411;79;21248;-73
2023/02/06 01:28:03;;;;;;;62.35;53.63;;;24.60;99.90;;;;;;1767620;80;21690;-73
2023/02/06 01:30:34;;;;;;;60.10;53.63;;;24.50;99.90;;;;;;1835005;76;21184;-75
2023/02/06 01:33:05;;;;;;;61.70;54.50;;;24.60;99.90;;;;;;1835875;76;21134;-73
2023/02/06 01:35:36;;;;;;;61.50;54.63;;;24.60;99.90;;;;;;1845377;76;21139;-73
2023/02/06 01:38:07;;;;;;;62.95;54.55;;;24.60;99.90;;;;;;1851682;76;21613;-72
2023/02/06 01:40:38;;;;;;;61.53;52.15;;;24.70;99.90;;;;;;1841102;76;21265;-72
2023/02/06 01:43:17;;;;;;;52.70;46.95;;;24.70;99.90;;;;;;1920812;73;21107;-70
2023/02/06 01:45:50;;;;;;;56.95;46.77;;;24.80;99.90;;;;;;1907220;73;21710;-70
2023/02/06 01:48:23;;;;;;;55.98;48.00;;;24.80;99.90;;;;;;1919780;73;21141;-72
2023/02/06 01:50:57;;;;;;;59.05;52.13;;;24.90;99.90;;;;;;1926780;73;21663;-72
2023/02/06 01:53:29;;;;;;;59.23;49.67;;;25.00;99.90;;;;;;1916723;73;21162;-72
2023/02/06 01:56:03;;;;;;;61.23;54.53;;;25.00;99.90;;;;;;1912370;73;21149;-72
2023/02/06 01:58:36;;;;;;;64.65;53.52;;;25.00;99.90;;;;;;1917921;73;21158;-72
2023/02/06 02:01:08;;;;;;;64.72;53.55;;;25.10;99.90;;;;;;1924833;73;21136;-72
2023/02/06 02:03:42;;;;;;;65.22;54.40;;;25.10;99.90;;;;;;1915311;73;21547;-72
2023/02/06 02:06:18;;;;;;;56.88;47.70;;;25.20;99.90;;;;;;1923080;73;21154;-71
2023/02/06 02:08:52;;;;;;;62.55;52.58;;;25.20;99.90;;;;;;1933477;73;21068;-72
2023/02/06 02:11:31;;;;;;;57.35;48.08;;;25.30;99.90;;;;;;1910599;73;21131;-73
2023/02/06 02:14:04;;;;;;;56.70;49.77;;;25.30;99.90;;;;;;1850488;77;21596;-71
2023/02/06 02:16:40;;;;;;;53.68;47.38;;;25.40;99.90;;;;;;1921393;73;21202;-72
2023/02/06 02:19:14;;;;;;;57.15;47.20;;;25.50;99.90;;;;;;1920475;73;21166;-72
2023/02/06 02:22:17;;;;;;;54.48;47.40;;;25.60;99.90;;;;;;1909392;73;21163;-71
2023/02/06 02:25:16;;;;;;;55.25;46.90;;;25.70;99.90;;;;;;1907035;73;21860;-72
2023/02/06 02:28:03;;;;;;;57.75;45.25;;;25.70;99.90;;;;;;1849577;76;21166;-71
2023/02/06 02:30:52;;;;;;;53.80;44.45;;;25.80;99.90;;;;;;1931027;73;21216;-71
2023/02/06 02:33:25;;;;;;;54.88;44.65;;;26.00;99.90;;;;;;1831283;77;21127;-72
2023/02/06 02:36:24;;;;;;;51.25;43.63;;;26.00;99.90;;;;;;1847192;76;21599;-71
2023/02/06 02:39:19;;;;;;;54.67;44.55;;;26.00;99.90;;;;;;1846412;77;21172;-71
2023/02/06 02:41:53;;;;;;;50.00;42.90;;;26.10;99.90;;;;;;1848039;76;21167;-71
2023/02/06 02:44:41;;;;;;;50.03;41.73;;;26.20;99.90;;;;;;1845404;77;21096;-71
2023/02/06 02:47:14;;;;;;;53.83;43.30;;;26.30;99.90;;;;;;1843192;77;21217;-72
2023/02/06 02:49:47;;;;;;;50.35;44.27;;;26.40;99.90;;;;;;1850463;76;21172;-71
2023/02/06 02:52:19;;;;;;;53.75;43.10;;;26.40;99.90;;;;;;1889790;74;21222;-71
2023/02/06 02:54:51;;;;;;;53.83;42.30;;;26.40;99.90;;;;;;1881925;75;21170;-71
2023/02/06 02:57:25;;;;;;;54.13;42.90;;;26.50;99.90;;;;;;1854464;76;21245;-71
2023/02/06 02:59:59;;;;;;;47.90;42.45;;;26.50;99.80;;;;;;1841303;76;21328;-72
2023/02/06 03:02:38;;;;;;;51.65;42.80;;;26.60;99.50;;;;;;1838180;76;21165;-71
2023/02/06 03:05:11;;;;;;;51.15;42.73;;;26.70;99.30;;;;;;1838987;76;21166;-71
2023/02/06 03:07:53;;;;;;;50.65;41.53;;;26.80;98.80;;;;;;1849762;76;21677;-72
2023/02/06 03:10:47;;;;;;;49.77;42.25;;;26.90;98.50;;;;;;1865729;75;21163;-72
2023/02/06 03:13:27;;;;;;;55.28;44.35;;;26.90;98.50;;;;;;1872962;75;21547;-73
2023/02/06 03:16:20;;;;;;;49.40;42.33;;;27.00;98.30;;;;;;1865644;75;21723;-72
2023/02/06 03:18:59;;;;;;;48.28;43.20;;;27.10;98.20;;;;;;1873623;75;21150;-71
2023/02/06 03:21:32;;;;;;;51.28;41.23;;;27.10;98.30;;;;;;1869381;75;21228;-71
2023/02/06 03:24:05;;;;;;;47.98;41.70;;;27.10;98.10;;;;;;1890652;74;21135;-72
2023/02/06 03:26:37;;;;;;;48.90;41.70;;;27.10;98.00;;;;;;1886760;74;21179;-72
2023/02/06 03:29:11;;;;;;;46.10;39.53;;;27.20;98.00;;;;;;1850402;76;21140;-71
2023/02/06 03:31:56;;;;;;;45.65;40.63;;;27.30;97.60;;;;;;1855711;76;21162;-72
2023/02/06 03:34:30;;;;;;;44.00;37.83;;;27.40;97.60;;;;;;1874449;75;21145;-73
2023/02/06 03:37:01;;;;;;;43.73;36.75;;;27.60;97.10;;;;;;1836276;77;21096;-73
2023/02/06 03:39:33;;;;;;;44.53;39.67;;;27.70;96.90;;;;;;1864957;75;21167;-72
2023/02/06 03:42:05;;;;;;;46.02;38.78;;;27.80;96.70;;;;;;1917907;73;21197;-73
2023/02/06 03:44:38;;;;;;;41.00;36.50;;;27.90;96.40;;;;;;1916605;73;21587;-72
2023/02/06 03:47:11;;;;;;;40.40;36.10;;;28.00;96.30;;;;;;1920556;73;21643;-72
2023/02/06 03:49:43;;;;;;;44.25;36.63;;;28.10;96.10;;;;;;1913542;73;21134;-72
2023/02/06 03:52:16;;;;;;;43.13;37.48;;;28.20;95.80;;;;;;1908317;73;21165;-72
2023/02/06 03:54:50;;;;;;;40.83;35.83;;;28.40;96.00;;;;;;1915424;73;21168;-72
2023/02/06 03:57:23;;;;;;;41.33;35.73;;;28.50;95.40;;;;;;1915345;73;21170;-73
2023/02/06 03:59:54;;;;;;;38.78;34.60;;;28.60;95.20;;;;;;1917708;73;21216;-72
2023/02/06 04:02:26;;;;;;;40.55;33.38;;;28.80;94.40;;;;;;1909867;73;21173;-72
2023/02/06 04:05:00;;;;;;;40.03;35.73;;;28.90;94.60;;;;;;1923172;73;21560;-72
2023/02/06 04:07:33;;;;;;;38.38;34.30;;;29.00;94.40;;;;;;1912778;73;21604;-72
2023/02/06 04:10:04;;;;;;;39.92;33.95;;;29.00;93.90;;;;;;1916394;73;21140;-72
2023/02/06 04:12:35;;;;;;;39.53;33.45;;;29.00;93.50;;;;;;1921287;73;21204;-73
2023/02/06 04:15:06;;;;;;;33.98;29.48;;;29.10;93.40;;;;;;1923482;73;21610;-72
2023/02/06 04:17:37;;;;;;;30.80;27.15;;;29.20;92.60;;;;;;1907315;73;21072;-73
2023/02/06 04:20:11;;;;;;;35.80;31.00;;;29.30;92.50;;;;;;1916717;73;21316;-72
2023/02/06 04:22:42;;;;;;;30.88;27.67;;;29.30;92.50;;;;;;1939233;73;21525;-73
2023/02/06 04:25:14;;;;;;;31.00;26.85;;;29.50;92.30;;;;;;1915990;73;21688;-72
2023/02/06 04:27:45;;;;;;;32.80;27.02;;;29.60;91.90;;;;;;1936145;73;21174;-72
2023/02/06 04:30:22;;;;;;;33.13;27.35;;;29.70;91.70;;;;;;1926396;73;21162;-73
2023/02/06 04:32:54;;;;;;;31.95;24.95;;;29.80;94.80;;;;;;1926600;73;21072;-73
2023/02/06 04:35:25;;;;;;;28.27;24.10;;;29.80;91.90;;;;;;1928784;73;21269;-73
2023/02/06 04:37:55;;;;;;;28.38;25.32;;;29.90;91.30;;;;;;1924927;73;21176;-72
2023/02/06 04:40:26;;;;;;;29.90;25.00;;;30.00;93.50;;;;;;1933975;73;21128;-72
2023/02/06 04:42:57;;;;;;;30.02;23.70;;;30.20;90.80;;;;;;1926965;73;21166;-71
2023/02/06 04:45:28;;;;;;;24.70;22.20;;;30.30;90.70;;;;;;1925845;73;21103;-73
2023/02/06 04:47:59;;;;;;;27.00;22.40;;;30.40;90.00;;;;;;1927080;73;21093;-72
2023/02/06 04:50:30;;;;;;;27.22;23.10;;;30.40;90.00;;;;;;1924629;73;21203;-72
2023/02/06 04:53:01;;;;;;;27.00;23.73;;;30.50;90.10;;;;;;1918772;73;21146;-73
2023/02/06 04:55:32;;;;;;;31.60;26.95;;;30.60;88.50;;;;;;1929466;73;21119;-71
2023/02/06 04:58:03;;;;;;;28.10;25.05;;;30.70;88.60;;;;;;1923135;73;21593;-73
2023/02/06 05:00:35;;;;;;;25.37;21.42;;;30.70;88.20;;;;;;1928740;73;21198;-73
2023/02/06 05:03:10;;;;;;;23.45;20.32;;;30.80;87.90;;;;;;1913605;73;21209;-73
2023/02/06 05:05:40;;;;;;;23.15;20.10;;;30.90;86.90;;;;;;1891657;75;21623;-73
2023/02/06 05:08:13;;;;;;;24.37;20.92;;;30.90;87.20;;;;;;1882620;75;21216;-73
2023/02/06 05:10:44;;;;;;;24.47;21.20;;;31.00;86.30;;;;;;1874099;75;21081;-73
2023/02/06 05:13:14;;;;;;;25.68;20.50;;;31.10;88.10;;;;;;1848722;76;21545;-73
2023/02/06 05:15:45;;;;;;;21.93;19.45;;;31.10;85.30;;;;;;1934524;73;21200;-73
2023/02/06 05:18:16;;;;;;;22.15;19.92;;;31.20;83.70;;;;;;1825349;76;21145;-72
2023/02/06 05:20:47;;;;;;;26.60;20.50;;;31.30;83.70;;;;;;1927095;73;21270;-71
2023/02/06 05:23:19;;;;;;;23.62;19.62;;;31.40;83.70;;;;;;1830545;76;21185;-70
2023/02/06 05:25:51;;;;;;;21.33;18.55;;;31.40;94.30;;;;;;1852944;76;21494;-70
2023/02/06 05:28:21;;;;;;;19.20;16.85;;;31.40;95.40;;;;;;1808567;77;21277;-71
2023/02/06 05:30:56;;;;;;;21.35;17.62;;;31.40;82.20;;;;;;1866775;75;21223;-72
2023/02/06 05:33:31;;;;;;;22.37;17.65;;;31.40;82.80;;;;;;1836263;77;21108;-72
2023/02/06 05:36:06;;;;;;;20.85;18.57;;;31.40;81.90;;;;;;1806916;77;21165;-72
2023/02/06 05:38:37;;;;;;;26.45;17.73;;;31.50;81.80;;;;;;1832796;77;21238;-73
2023/02/06 05:41:12;;;;;;;22.82;18.15;;;31.60;80.90;;;;;;1820683;77;21179;-74
2023/02/06 05:43:43;;;;;;;20.35;17.98;;;31.70;80.40;;;;;;1914651;73;21730;-73
2023/02/06 05:46:15;;;;;;;20.80;17.45;;;31.80;80.00;;;;;;1911922;73;21247;-71
2023/02/06 05:48:46;;;;;;;23.05;18.25;;;31.80;79.90;;;;;;1910474;73;21135;-71
2023/02/06 05:51:21;;;;;;;23.73;19.67;;;31.80;81.00;;;;;;1912216;73;21897;-72
2023/02/06 05:53:49;;;;;;;20.52;18.42;;;31.90;79.60;;;;;;1913242;73;21076;-71
2023/02/06 05:56:20;;;;;;;19.90;16.90;;;31.90;78.40;;;;;;1905365;73;21063;-71
2023/02/06 05:58:51;;;;;;;19.82;16.27;;;31.90;78.00;;;;;;1830884;77;21894;-71
2023/02/06 06:01:23;;;;;;;19.05;16.50;;;31.80;79.00;;;;;;1823207;77;21131;-72
2023/02/06 06:03:54;;;;;;;19.90;16.80;;;31.60;79.70;;;;;;1877276;75;21193;-71
2023/02/06 06:06:25;;;;;;;21.37;18.65;;;31.60;80.20;;;;;;1912399;73;21127;-71
2023/02/06 06:08:56;;;;;;;18.25;15.20;;;31.50;79.30;;;;;;1913118;73;21736;-70
2023/02/06 06:11:28;;;;;;;19.00;15.55;;;31.40;79.00;;;;;;1925834;73;21177;-70
2023/02/06 06:13:59;;;;;;;17.40;15.03;;;31.20;78.10;;;;;;1905300;73;21138;-71
2023/02/06 06:16:32;;;;;;;23.10;17.50;;;31.10;78.40;;;;;;1911702;73;21103;-72
2023/02/06 06:19:05;;;;;;;15.72;13.45;;;31.00;79.20;;;;;;1927297;73;21122;-71
2023/02/06 06:21:36;;;;;;;21.95;14.03;;;30.90;78.40;;;;;;1919666;73;21241;-72
2023/02/06 06:24:10;;;;;;;15.25;12.70;;;30.90;76.90;;;;;;1899461;73;21114;-72
2023/02/06 06:26:41;;;;;;;14.78;13.22;;;30.90;76.90;;;;;;1863917;75;21200;-72
2023/02/06 06:29:12;;;;;;;18.15;14.73;;;30.90;78.00;;;;;;1919515;73;21484;-72
2023/02/06 06:31:44;;;;;;;14.43;12.93;;;30.90;77.90;;;;;;1919648;73;21099;-71
2023/02/06 06:34:19;;;;;;;20.95;17.45;;;30.90;77.30;;;;;;1934885;73;21142;-72
2023/02/06 06:36:48;;;;;;;22.80;15.85;;;31.00;77.90;;;;;;1930588;73;21170;-72
2023/02/06 06:39:27;;;;;;;17.35;14.30;;;31.10;77.30;;;;;;1930703;73;21114;-72
2023/02/06 06:41:58;;;;;;;22.02;14.80;;;31.10;76.70;;;;;;1934815;73;21256;-72
2023/02/06 06:44:28;;;;;;;16.70;12.65;;;31.20;77.00;;;;;;1928682;73;21168;-72
2023/02/06 06:46:59;;;;;;;20.40;15.35;;;31.20;75.90;;;;;;1909567;73;21107;-72
2023/02/06 06:49:30;;;;;;;19.77;15.32;;;31.30;77.20;;;;;;1929683;73;21200;-72
2023/02/06 06:52:01;;;;;;;15.72;14.23;;;31.40;77.70;;;;;;1930950;73;21178;-72
2023/02/06 06:54:53;;;;;;;17.77;15.98;;;31.50;77.50;;;;;;1924553;73;21376;-72
2023/02/06 06:57:24;;;;;;;17.65;12.50;;;31.60;76.80;;;;;;1883211;74;21193;-71
2023/02/06 06:59:58;;;;;;;16.23;14.53;;;31.70;75.20;;;;;;1843253;76;21126;-71
2023/02/06 07:02:30;;;;;;;16.15;13.78;;;31.90;73.40;;;;;;1843256;77;21146;-72
2023/02/06 07:05:01;;;;;;;15.20;13.60;;;32.00;73.50;;;;;;1828637;76;21137;-71
2023/02/06 07:07:33;;;;;;;21.55;13.80;;;32.10;73.70;;;;;;1835107;76;21137;-71
2023/02/06 07:10:05;;;;;;;18.17;14.90;;;32.20;73.10;;;;;;1837633;76;21130;-71
2023/02/06 07:12:36;;;;;;;18.98;15.58;;;32.20;71.20;;;;;;1811763;77;21125;-72
2023/02/06 07:15:07;;;;;;;23.30;15.40;;;32.20;71.00;;;;;;1848515;76;21216;-72
2023/02/06 07:17:38;;;;;;;15.28;13.68;;;32.00;71.50;;;;;;1817996;77;21295;-72
2023/02/06 07:20:10;;;;;;;15.88;13.70;;;31.90;70.60;;;;;;1849989;76;21639;-72
2023/02/06 07:22:46;;;;;;;18.40;16.42;;;31.90;70.90;;;;;;1841212;76;21150;-71
2023/02/06 07:25:17;;;;;;;18.40;14.00;;;31.80;72.00;;;;;;1882611;74;21123;-71
2023/02/06 07:27:48;;;;;;;18.42;13.68;;;31.80;72.90;;;;;;1857539;76;21087;-71
2023/02/06 07:30:22;;;;;;;16.82;15.05;;;31.90;71.10;;;;;;1846031;76;21159;-71
2023/02/06 07:32:56;;;;;;;16.05;13.72;;;31.90;72.00;;;;;;1841194;76;21183;-72
2023/02/06 07:35:28;;;;;;;15.45;13.80;;;32.00;72.30;;;;;;1817332;77;21252;-73
2023/02/06 07:37:58;;;;;;;19.27;14.73;;;32.10;72.70;;;;;;1821018;77;21177;-73
2023/02/06 07:40:32;;;;;;;15.23;13.72;;;32.00;72.80;;;;;;1837002;77;21154;-73
2023/02/06 07:43:07;;;;;;;18.65;15.10;;;32.00;72.10;;;;;;1840465;76;21234;-72
2023/02/06 07:45:38;;;;;;;15.85;14.07;;;32.00;71.10;;;;;;1806759;78;21109;-73
2023/02/06 07:48:09;;;;;;;17.17;15.38;;;32.10;71.40;;;;;;1839820;77;21171;-72
2023/02/06 07:50:40;;;;;;;17.90;16.00;;;32.10;70.70;;;;;;1844155;76;21087;-72
2023/02/06 07:53:11;;;;;;;20.00;14.95;;;32.10;69.80;;;;;;1860212;76;21255;-72
2023/02/06 07:55:42;;;;;;;18.23;16.42;;;32.10;69.50;;;;;;1847990;76;21232;-72
2023/02/06 07:58:19;;;;;;;20.85;15.98;;;32.10;70.50;;;;;;1832158;77;21123;-73
2023/02/06 08:00:50;;;;;;;17.77;15.95;;;32.10;70.30;;;;;;1793471;78;21156;-72
2023/02/06 08:03:21;;;;;;;19.67;17.42;;;32.10;70.10;;;;;;1816319;77;21252;-71
2023/02/06 08:05:52;;;;;;;22.20;16.20;;;32.10;70.90;;;;;;1817515;77;21586;-71
2023/02/06 08:08:23;;;;;;;19.12;14.98;;;32.10;70.70;;;;;;1830270;77;21128;-72
2023/02/06 08:10:54;;;;;;;17.82;14.30;;;32.10;69.40;;;;;;1828033;77;21171;-72
2023/02/06 08:13:25;;;;;;;18.65;14.87;;;32.20;68.60;;;;;;1827860;77;21139;-72
2023/02/06 08:15:55;;;;;;;16.15;14.25;;;32.30;68.20;;;;;;1843636;76;21090;-73
2023/02/06 08:18:26;;;;;;;17.77;15.38;;;32.30;68.40;;;;;;1838436;76;21743;-72
2023/02/06 08:21:01;;;;;;;19.20;14.87;;;32.20;69.60;;;;;;1841538;76;21598;-72
2023/02/06 08:23:35;;;;;;;19.37;17.10;;;32.30;69.20;;;;;;1838799;76;21137;-73
2023/02/06 08:26:14;;;;;;;15.85;14.18;;;32.30;69.40;;;;;;1838845;77;21069;-71
2023/02/06 08:28:47;;;;;;;18.30;14.55;;;32.30;70.50;;;;;;1841328;76;21621;-73
2023/02/06 08:31:21;;;;;;;16.50;14.80;;;32.30;68.60;;;;;;1841477;76;21862;-73
2023/02/06 08:33:52;;;;;;;27.48;17.00;;;32.20;67.90;;;;;;1839416;76;21149;-72
2023/02/06 08:36:24;;;;;;;21.02;15.23;;;32.30;68.20;;;;;;1844663;76;21136;-73
2023/02/06 08:38:55;;;;;;;15.65;14.03;;;32.30;67.80;;;;;;1844890;76;21244;-73
2023/02/06 08:41:31;;;;;;;19.55;15.72;;;32.30;67.70;;;;;;1850870;76;21145;-72
2023/02/06 08:44:03;;;;;;;18.55;15.45;;;32.30;67.80;;;;;;1841609;76;21717;-73
2023/02/06 08:46:34;;;;;;;18.37;15.03;;;32.40;67.60;;;;;;1846435;76;21271;-73
2023/02/06 08:49:13;;;;;;;17.55;15.72;;;32.30;66.70;;;;;;1850196;76;21078;-73
2023/02/06 08:51:45;;;;;;;16.95;14.60;;;32.30;67.60;;;;;;1846094;76;21119;-74
2023/02/06 08:54:18;;;;;;;16.50;14.80;;;32.30;67.10;;;;;;1816087;77;21127;-72
2023/02/06 08:56:55;;;;;;;21.20;15.97;;;32.30;67.40;;;;;;1891552;74;21250;-73
2023/02/06 08:59:25;;;;;;;16.90;15.10;;;32.30;66.80;;;;;;1876877;74;21432;-73
2023/02/06 09:01:56;;;;;;;15.35;13.75;;;32.30;67.10;;;;;;1880421;74;21131;-72
2023/02/06 09:04:30;;;;;;;15.28;13.40;;;32.30;66.80;;;;;;1877614;74;21135;-72
2023/02/06 09:07:02;;;;;;;18.57;15.85;;;32.30;66.80;;;;;;1880568;74;21664;-73
2023/02/06 09:09:33;;;;;;;20.90;16.27;;;32.30;67.60;;;;;;1883236;74;21127;-72
2023/02/06 09:12:04;;;;;;;16.42;14.40;;;32.20;67.60;;;;;;1879325;74;21179;-72
2023/02/06 09:14:35;;;;;;;20.20;15.40;;;32.30;67.60;;;;;;1878691;74;21228;-72
2023/02/06 09:17:06;;;;;;;17.20;13.72;;;32.30;67.40;;;;;;1883117;74;21154;-72
2023/02/06 09:19:38;;;;;;;18.17;15.00;;;32.30;67.20;;;;;;1887157;74;21170;-73
2023/02/06 09:22:10;;;;;;;17.45;13.65;;;32.30;67.60;;;;;;1845252;76;21241;-72
2023/02/06 09:24:42;;;;;;;19.77;16.30;;;32.30;67.20;;;;;;1883921;74;21208;-72
2023/02/06 09:27:12;;;;;;;16.82;13.43;;;32.30;67.60;;;;;;1877833;74;21075;-73
2023/02/06 09:29:43;;;;;;;16.05;14.35;;;32.30;67.40;;;;;;1853121;76;21202;-73
2023/02/06 09:32:14;;;;;;;20.55;14.98;;;32.30;67.90;;;;;;1849692;76;21147;-73
2023/02/06 09:34:46;;;;;;;18.25;15.90;;;32.30;67.50;;;;;;1882862;74;21131;-74
2023/02/06 09:37:17;;;;;;;20.02;15.58;;;32.30;67.20;;;;;;1881989;74;21158;-73
2023/02/06 09:39:48;;;;;;;16.10;14.40;;;32.20;67.00;;;;;;1877064;74;21175;-74
2023/02/06 09:42:31;;;;;;;18.20;14.55;;;32.20;67.00;;;;;;1863164;76;21087;-74
2023/02/06 09:45:04;;;;;;;16.02;14.23;;;32.20;67.40;;;;;;1877618;74;21127;-74
2023/02/06 09:47:37;;;;;;;19.75;15.95;;;32.20;67.50;;;;;;1859495;76;21143;-74
2023/02/06 09:50:27;;;;;;;20.10;17.20;;;32.10;67.40;;;;;;1883990;74;21583;-73
2023/02/06 09:53:16;;;;;;;19.23;16.12;;;32.10;67.70;;;;;;1900043;74;21199;-74
2023/02/06 09:55:49;;;;;;;21.15;18.20;;;32.00;68.10;;;;;;1879593;74;21614;-73
2023/02/06 09:58:49;;;;;;;27.25;20.35;;;31.90;69.00;;;;;;1867105;76;21683;-73
2023/02/06 10:01:22;;;;;;;22.42;18.98;;;31.80;69.50;;;;;;1898691;74;21147;-74
2023/02/06 10:03:55;;;;;;;26.68;18.85;;;31.70;70.00;;;;;;1836007;76;21233;-74
2023/02/06 10:06:28;;;;;;;19.37;16.20;;;31.50;70.40;;;;;;1879618;74;21142;-72
2023/02/06 10:09:04;;;;;;;14.98;13.48;;;31.50;70.90;;;;;;1894997;74;21154;-73
2023/02/06 10:12:00;;;;;;;20.32;14.35;;;31.30;71.00;;;;;;1888323;74;21200;-74
2023/02/06 10:14:33;;;;;;;16.70;14.85;;;31.30;72.70;;;;;;1881524;74;21091;-72
2023/02/06 10:17:07;;;;;;;17.95;15.08;;;31.20;73.30;;;;;;1883938;74;21131;-88
2023/02/06 10:19:48;;;;;;;17.87;15.70;;;31.20;73.80;;;;;;1880747;74;21142;-89
2023/02/06 10:22:30;;;;;;;21.48;18.90;;;31.10;73.90;;;;;;1882869;74;21583;-89
2023/02/06 10:25:26;;;;;;;20.48;16.95;;;31.00;74.30;;;;;;1850697;76;21092;-88
2023/02/06 10:28:03;;;;;;;26.17;17.30;;;31.00;74.70;;;;;;1844770;76;21182;-90
2023/02/06 10:30:37;;;;;;;28.15;17.70;;;30.90;74.90;;;;;;1826504;76;21091;-89
2023/02/06 10:33:16;;;;;;;19.87;17.67;;;30.90;75.20;;;;;;1898229;74;21138;-86
2023/02/06 10:36:06;;;;;;;19.45;17.00;;;30.80;74.80;;;;;;1898817;74;21977;-88
2023/02/06 10:38:46;;;;;;;21.23;16.35;;;30.80;74.90;;;;;;1837704;76;21120;-87
2023/02/06 10:41:25;;;;;;;22.02;15.50;;;30.70;75.00;;;;;;1879580;74;21097;-83
2023/02/06 10:44:03;;;;;;;19.02;16.05;;;30.70;75.50;;;;;;1830811;76;21187;-85
2023/02/06 10:46:52;;;;;;;20.95;16.57;;;30.70;76.20;;;;;;1850143;76;21139;-85
2023/02/06 10:49:31;;;;;;;21.57;16.75;;;30.60;76.60;;;;;;1827219;78;21080;-84
2023/02/06 10:52:31;;;;;;;22.75;16.27;;;30.60;76.90;;;;;;1883327;74;21146;-85
2023/02/06 10:55:15;;;;;;;20.72;16.37;;;30.50;77.20;;;;;;1855234;76;21127;-86
2023/02/06 10:57:49;;;;;;;25.40;16.57;;;30.50;77.50;;;;;;1889532;74;21197;-85
2023/02/06 11:00:28;;;;;;;22.77;15.83;;;30.40;77.80;;;;;;1851363;76;21230;-86
2023/02/06 11:03:06;;;;;;;23.73;17.40;;;30.40;78.00;;;;;;1884593;74;21586;-86
2023/02/06 11:05:36;;;;;;;22.95;17.15;;;30.40;78.30;;;;;;1882831;74;21640;-85
2023/02/06 11:08:13;;;;;;;23.90;18.55;;;30.30;78.40;;;;;;1849263;76;21225;-86
2023/02/06 11:10:45;;;;;;;21.85;17.62;;;30.30;78.50;;;;;;1855189;76;21143;-85
2023/02/06 11:13:30;;;;;;;26.68;19.82;;;30.30;78.50;;;;;;1903554;74;21129;-85
2023/02/06 11:16:09;;;;;;;24.52;18.27;;;30.20;78.40;;;;;;1880714;74;21131;-85
2023/02/06 11:18:46;;;;;;;30.27;18.45;;;30.20;78.70;;;;;;1882143;74;21162;-86
2023/02/06 11:21:37;;;;;;;25.12;18.57;;;30.20;78.60;;;;;;1886419;74;21232;-83
2023/02/06 11:24:16;;;;;;;26.68;19.92;;;30.10;78.60;;;;;;1882616;74;21217;-86
2023/02/06 11:27:04;;;;;;;27.20;20.00;;;30.10;78.90;;;;;;1835783;76;21167;-85
2023/02/06 11:29:41;;;;;;;28.60;21.35;;;30.10;79.00;;;;;;1884256;74;21827;-86
2023/02/06 11:32:32;;;;;;;26.77;22.45;;;30.10;79.10;;;;;;1846090;76;21242;-87
2023/02/06 11:35:07;;;;;;;26.95;20.23;;;30.00;79.30;;;;;;1867692;76;21150;-86
2023/02/06 11:37:46;;;;;;;27.30;20.60;;;30.00;79.50;;;;;;1886933;74;21139;-85
2023/02/06 11:40:35;;;;;;;28.80;20.82;;;30.00;79.70;;;;;;1846223;76;21160;-86
2023/02/06 11:43:33;;;;;;;26.02;20.62;;;29.90;79.90;;;;;;1812883;78;21100;-85
2023/02/06 11:46:19;;;;;;;29.70;21.70;;;30.00;80.30;;;;;;1901869;74;21165;-86
2023/02/06 11:49:21;;;;;;;29.15;22.73;;;29.90;80.60;;;;;;1886009;74;21835;-85
2023/02/06 11:52:02;;;;;;;25.55;21.73;;;29.90;81.30;;;;;;1894638;74;21188;-85
2023/02/06 11:54:37;;;;;;;29.27;21.35;;;29.90;81.50;;;;;;1816550;76;21229;-86
2023/02/06 11:57:22;;;;;;;;;;;29.80;81.90;;;;;;1877672;74;21507;-85
2023/02/06 11:59:57;;;;;;;27.50;21.20;;;29.80;81.70;;;;;;1885082;74;20178;-86
2023/02/06 12:02:34;;;;;;;28.40;22.20;;;29.80;81.90;;;;;;1886762;74;21052;-86
2023/02/06 12:05:15;;;;;;;33.37;23.70;;;29.70;81.80;;;;;;1876317;74;21134;-85
2023/02/06 12:08:03;;;;;;;30.35;22.98;;;29.70;82.00;;;;;;1884900;74;21185;-86
2023/02/06 12:10:36;;;;;;;31.17;23.55;;;29.70;82.20;;;;;;1889101;74;21594;-86
2023/02/06 12:13:22;;;;;;;31.48;23.75;;;29.70;82.40;;;;;;1856057;76;21125;-84
2023/02/06 12:15:56;;;;;;;34.35;22.90;;;29.70;82.70;;;;;;1872249;74;21501;-85
2023/02/06 12:18:38;;;;;;;30.48;23.00;;;29.70;82.60;;;;;;1881738;74;21652;-86
2023/02/06 12:21:12;;;;;;;29.70;21.90;;;29.70;82.70;;;;;;1895251;74;21205;-85
2023/02/06 12:23:52;;;;;;;32.13;22.35;;;29.60;82.70;;;;;;1859967;76;22377;-86
2023/02/06 12:26:25;;;;;;;25.37;22.22;;;29.60;83.00;;;;;;1891535;74;21287;-85
2023/02/06 12:29:05;;;;;;;28.98;23.45;;;29.60;83.20;;;;;;1879616;74;21234;-84
2023/02/06 12:31:42;;;;;;;29.37;23.18;;;29.60;83.20;;;;;;1849623;76;21089;-84
2023/02/06 12:34:26;;;;;;;27.73;23.20;;;29.60;83.40;;;;;;1848591;76;21718;-85
2023/02/06 12:37:13;;;;;;;35.20;26.83;;;29.50;83.40;;;;;;1892600;74;21296;-85
2023/02/06 12:39:40;;;;;;;39.50;28.27;;;29.50;83.70;;;;;;1891442;74;21115;-84
2023/02/06 12:42:20;;;;;;;35.17;26.82;;;29.50;83.90;;;;;;1880259;74;21092;-85
2023/02/06 12:45:09;;;;;;;32.78;26.15;;;29.40;83.90;;;;;;1853362;76;21132;-85
2023/02/06 12:47:55;;;;;;;35.05;26.65;;;29.50;83.90;;;;;;1887184;74;21476;-85
2023/02/06 12:50:31;;;;;;;36.05;28.25;;;29.40;84.00;;;;;;1887910;74;21161;-85
2023/02/06 12:53:07;;;;;;;33.13;24.50;;;29.40;84.20;;;;;;1884304;74;21263;-84
2023/02/06 12:55:46;;;;;;;35.45;25.60;;;29.40;84.40;;;;;;1808800;74;21175;-83
2023/02/06 12:58:31;;;;;;;34.60;26.35;;;29.30;84.70;;;;;;1883803;74;21129;-84
2023/02/06 13:01:22;;;;;;;30.02;24.18;;;29.30;84.90;;;;;;1894085;74;21130;-84
2023/02/06 13:04:00;;;;;;;31.15;23.77;;;29.30;85.00;;;;;;1884393;74;21147;-85
2023/02/06 13:06:49;;;;;;;29.48;24.40;;;29.30;85.00;;;;;;1889956;74;21158;-84
2023/02/06 13:09:35;;;;;;;33.00;24.80;;;29.30;85.10;;;;;;1876733;74;21187;-83